Flight Track Log - Related Links

Times and Time Zones

All times are in EDT time to prevent confusion due to time zone crossing. See the N588AC flight status page for this flight to view local times or setup timezone preferences in your user account.

Time Position Orientation Groundspeed Altitude Reporting Facility
EDT Latitude Longitude Course Direction KTS MPH feet Rate Location/Type
Sun 08:36:18 AM 37.3453 -80.4756 335° Northwest 223 257 6,400  Level Indianapolis Center
Sun 08:37:19 AM 37.4111 -80.5147 335° Northwest 263 303 7,000 934 Climbing Indianapolis Center
Sun 08:38:20 AM 37.4867 -80.5494 340° North 286 329 8,300 2,195 Climbing Indianapolis Center
Sun 08:39:22 AM 37.5653 -80.5906 337° Northwest 264 304 11,500 2,448 Climbing Indianapolis Center
Sun 08:40:25 AM 37.6253 -80.6289 333° Northwest 265 305 13,400 1,820 Climbing Washington Center
Sun 08:41:24 AM 37.6958 -80.6606 340° North 266 306 15,200 1,850 Climbing Indianapolis Center
Sun 08:42:25 AM 37.7636 -80.6956 338° Northwest 270 311 17,100 1,805 Climbing Indianapolis Center
Sun 08:43:27 AM 37.8453 -80.7361 339° North 277 319 18,900 1,756 Climbing Indianapolis Center
Sun 08:44:28 AM 37.9156 -80.7769 335° Northwest 278 320 20,700 1,869 Climbing Indianapolis Center
Sun 08:45:29 AM 37.9861 -80.8133 338° Northwest 272 313 22,700 1,721 Climbing Indianapolis Center
Sun 08:46:30 AM 38.0575 -80.8472 340° North 272 313 24,200 1,512 Climbing Indianapolis Center
Sun 08:47:32 AM 38.1289 -80.8819 339° North 275 316 25,800 1,463 Climbing Indianapolis Center
Sun 08:48:33 AM 38.2014 -80.9192 338° Northwest 281 323 27,200 1,033 Climbing Indianapolis Center
Sun 08:49:34 AM 38.2764 -80.9569 338° Northwest 291 335 27,900 393 Climbing Indianapolis Center
Sun 08:50:35 AM 38.3608 -81.0044 336° Northwest 325 374 28,000 49 Climbing Indianapolis Center
Sun 08:51:36 AM 38.4558 -81.0550 337° Northwest 364 419 28,000  Level Indianapolis Center
Sun 08:52:38 AM 38.5719 -81.1156 338° Northwest 377 434 28,000  Level Indianapolis Center
Sun 08:53:39 AM 38.6725 -81.1664 338° Northwest 388 447 28,000  Level Indianapolis Center
Sun 08:54:40 AM 38.7747 -81.2197 338° Northwest 399 459 28,000  Level Indianapolis Center
Sun 08:55:41 AM 38.8767 -81.2731 338° Northwest 400 460 28,000  Level Indianapolis Center
Sun 08:56:43 AM 38.9811 -81.3289 337° Northwest 405 466 28,000  Level Indianapolis Center
Sun 08:57:44 AM 39.0836 -81.3833 338° Northwest 406 467 28,000  Level Indianapolis Center
Sun 08:58:45 AM 39.1872 -81.4386 338° Northwest 406 467 28,000  Level Indianapolis Center
Sun 08:59:46 AM 39.3119 -81.5047 338° Northwest 405 466 28,000  Level Indianapolis Center
Sun 09:00:48 AM 39.4153 -81.5606 337° Northwest 404 465 28,000  Level Indianapolis Center
Sun 09:01:49 AM 39.5206 -81.6150 338° Northwest 407 468 28,000 -590 Level Indianapolis Center
Sun 09:02:50 AM 39.6281 -81.6733 337° Northwest 417 480 26,800 -1,415 Descending Indianapolis Center
Sun 09:03:52 AM 39.7492 -81.7392 337° Northwest 433 498 25,100 -1,610 Descending Indianapolis Center
Sun 09:04:53 AM 39.8567 -81.7972 337° Northwest 417 480 23,500 -1,574 Descending Indianapolis Center
Sun 09:05:54 AM 39.9617 -81.8539 338° Northwest 407 468 21,900 -1,561 Descending Indianapolis Center
Sun 09:06:56 AM 40.0647 -81.9117 337° Northwest 401 461 20,300 -1,561 Descending Indianapolis Center
Sun 09:07:57 AM 40.1614 -81.9636 338° Northwest 375 432 18,700 -1,426 Descending Indianapolis Center
Sun 09:08:58 AM 40.2458 -82.0097 337° Northwest 347 399 17,400 -1,415 Descending Indianapolis Center
Sun 09:10:00 AM 40.3322 -82.0572 337° Northwest 335 386 15,800 -1,561 Descending Indianapolis Center
Sun 09:11:01 AM 40.4161 -82.1044 337° Northwest 326 375 14,200 -1,561 Descending Indianapolis Center
Sun 09:12:03 AM 40.5000 -82.1511 337° Northwest 323 372 12,600 -1,561 Descending Indianapolis Center
Sun 09:13:04 AM 40.5828 -82.1958 338° Northwest 320 368 11,000 -1,721 Descending Indianapolis Center
Sun 09:14:05 AM 40.6739 -82.2297 344° North 294 338 9,100 -1,854 Descending Indianapolis Center
Sun 09:15:07 AM 40.7589 -82.2419 354° North 301 346 7,200 -1,902 Descending Indianapolis Center
Sun 09:16:08 AM 40.8381 -82.2533 354° North 290 334 5,200 -1,951 Descending Indianapolis Center
Sun 09:17:10 AM 40.9122 -82.2647 353° North 273 314 3,200 -1,073 Descending Indianapolis Center
Sun 09:18:11 AM 40.9836 -82.2758 353° North 263 303 3,000 -98 Descending Indianapolis Center
Sun 09:19:12 AM 41.0572 -82.2856 354° North 261 300 3,000  Level Indianapolis Center
Sun 09:20:14 AM 41.1258 -82.2958 354° North 254 292 3,000  Level Indianapolis Center
Sun 09:21:15 AM 41.1822 -82.3025 355° North 225 259 3,000 -49 Level Indianapolis Center
Sun 09:22:17 AM 41.2350 -82.3036 359° North 202 232 2,900 -97 Descending Indianapolis Center

Login

Don't have an account? Register now (free) for customized features, flight alerts, and more!